sensor_id;sensor_type;location;lat;lon;timestamp;temperature;humidity
36444;DHT22;24692;45.642;13.806;2022-11-20T00:02:01;8.30;99.90
36444;DHT22;24692;45.642;13.806;2022-11-20T00:04:26;8.30;99.90
36444;DHT22;24692;45.642;13.806;2022-11-20T00:06:52;8.20;99.90
36444;DHT22;24692;45.642;13.806;2022-11-20T00:09:18;8.20;99.90
36444;DHT22;24692;45.642;13.806;2022-11-20T00:11:43;8.30;99.90
36444;DHT22;24692;45.642;13.806;2022-11-20T00:14:09;8.30;99.90
36444;DHT22;24692;45.642;13.806;2022-11-20T00:16:35;8.10;99.90
36444;DHT22;24692;45.642;13.806;2022-11-20T00:19:01;8.10;99.90
36444;DHT22;24692;45.642;13.806;2022-11-20T00:21:28;8.20;99.90
36444;DHT22;24692;45.642;13.806;2022-11-20T00:23:55;8.20;99.90
36444;DHT22;24692;45.642;13.806;2022-11-20T00:26:23;8.20;99.90
36444;DHT22;24692;45.642;13.806;2022-11-20T00:28:54;8.20;99.90
36444;DHT22;24692;45.642;13.806;2022-11-20T00:31:20;8.10;99.90
36444;DHT22;24692;45.642;13.806;2022-11-20T00:33:46;8.10;99.90
36444;DHT22;24692;45.642;13.806;2022-11-20T00:36:20;8.10;99.90
36444;DHT22;24692;45.642;13.806;2022-11-20T00:38:46;8.10;99.90
36444;DHT22;24692;45.642;13.806;2022-11-20T00:41:14;8.00;99.90
36444;DHT22;24692;45.642;13.806;2022-11-20T00:43:40;8.00;99.90
36444;DHT22;24692;45.642;13.806;2022-11-20T00:46:12;8.00;99.90
36444;DHT22;24692;45.642;13.806;2022-11-20T00:48:38;7.90;99.90
36444;DHT22;24692;45.642;13.806;2022-11-20T00:51:04;8.00;99.90
36444;DHT22;24692;45.642;13.806;2022-11-20T00:53:31;7.90;99.90
36444;DHT22;24692;45.642;13.806;2022-11-20T00:55:59;7.90;99.90
36444;DHT22;24692;45.642;13.806;2022-11-20T00:58:28;7.70;99.90
36444;DHT22;24692;45.642;13.806;2022-11-20T01:01:03;7.80;99.90
36444;DHT22;24692;45.642;13.806;2022-11-20T01:03:31;7.80;99.90
36444;DHT22;24692;45.642;13.806;2022-11-20T01:06:06;7.80;99.90
36444;DHT22;24692;45.642;13.806;2022-11-20T01:08:34;7.70;99.90
36444;DHT22;24692;45.642;13.806;2022-11-20T01:11:17;7.60;99.90
36444;DHT22;24692;45.642;13.806;2022-11-20T01:13:45;7.60;99.90
36444;DHT22;24692;45.642;13.806;2022-11-20T01:16:17;7.60;99.90
36444;DHT22;24692;45.642;13.806;2022-11-20T01:18:45;7.60;99.90
36444;DHT22;24692;45.642;13.806;2022-11-20T01:21:13;7.50;99.90
36444;DHT22;24692;45.642;13.806;2022-11-20T01:23:41;7.60;99.90
36444;DHT22;24692;45.642;13.806;2022-11-20T01:26:10;7.70;99.90
36444;DHT22;24692;45.642;13.806;2022-11-20T01:28:36;7.80;99.90
36444;DHT22;24692;45.642;13.806;2022-11-20T01:31:11;7.80;99.90
36444;DHT22;24692;45.642;13.806;2022-11-20T01:33:39;7.80;99.90
36444;DHT22;24692;45.642;13.806;2022-11-20T01:36:06;7.80;99.90
36444;DHT22;24692;45.642;13.806;2022-11-20T01:38:32;7.80;99.90
36444;DHT22;24692;45.642;13.806;2022-11-20T01:40:57;7.80;99.90
36444;DHT22;24692;45.642;13.806;2022-11-20T01:43:24;7.80;99.90
36444;DHT22;24692;45.642;13.806;2022-11-20T01:46:12;7.80;99.90
36444;DHT22;24692;45.642;13.806;2022-11-20T01:54:13;7.80;99.90
36444;DHT22;24692;45.642;13.806;2022-11-20T01:56:43;7.70;99.90
36444;DHT22;24692;45.642;13.806;2022-11-20T01:59:10;7.80;99.90
36444;DHT22;24692;45.642;13.806;2022-11-20T02:01:37;7.70;99.90
36444;DHT22;24692;45.642;13.806;2022-11-20T02:04:05;7.60;99.90
36444;DHT22;24692;45.642;13.806;2022-11-20T02:06:53;7.60;99.90
36444;DHT22;24692;45.642;13.806;2022-11-20T02:09:20;7.60;99.90
36444;DHT22;24692;45.642;13.806;2022-11-20T02:11:46;7.60;99.90
36444;DHT22;24692;45.642;13.806;2022-11-20T02:14:12;7.70;99.90
36444;DHT22;24692;45.642;13.806;2022-11-20T02:16:46;7.70;99.90
36444;DHT22;24692;45.642;13.806;2022-11-20T02:19:31;7.60;99.90
36444;DHT22;24692;45.642;13.806;2022-11-20T02:22:07;7.70;99.90
36444;DHT22;24692;45.642;13.806;2022-11-20T02:24:35;7.70;99.90
36444;DHT22;24692;45.642;13.806;2022-11-20T02:27:12;7.60;99.90
36444;DHT22;24692;45.642;13.806;2022-11-20T02:30:05;7.60;99.90
36444;DHT22;24692;45.642;13.806;2022-11-20T02:32:35;7.60;99.90
36444;DHT22;24692;45.642;13.806;2022-11-20T02:37:43;7.60;99.90
36444;DHT22;24692;45.642;13.806;2022-11-20T02:40:10;7.50;99.90
36444;DHT22;24692;45.642;13.806;2022-11-20T02:42:37;7.50;99.90
36444;DHT22;24692;45.642;13.806;2022-11-20T02:45:04;7.50;99.90
36444;DHT22;24692;45.642;13.806;2022-11-20T02:47:30;7.50;99.90
36444;DHT22;24692;45.642;13.806;2022-11-20T02:49:56;7.40;99.90
36444;DHT22;24692;45.642;13.806;2022-11-20T02:52:22;7.50;99.90
36444;DHT22;24692;45.642;13.806;2022-11-20T02:54:48;7.50;99.90
36444;DHT22;24692;45.642;13.806;2022-11-20T02:57:14;7.40;99.90
36444;DHT22;24692;45.642;13.806;2022-11-20T02:59:39;7.50;99.90
36444;DHT22;24692;45.642;13.806;2022-11-20T03:02:05;7.50;99.90
36444;DHT22;24692;45.642;13.806;2022-11-20T03:04:31;7.50;99.90
36444;DHT22;24692;45.642;13.806;2022-11-20T03:06:57;7.60;99.90
36444;DHT22;24692;45.642;13.806;2022-11-20T03:09:22;7.60;99.90
36444;DHT22;24692;45.642;13.806;2022-11-20T03:11:48;7.60;99.90
36444;DHT22;24692;45.642;13.806;2022-11-20T03:14:14;7.60;99.90
36444;DHT22;24692;45.642;13.806;2022-11-20T03:16:39;7.50;99.90
36444;DHT22;24692;45.642;13.806;2022-11-20T03:19:05;7.50;99.90
36444;DHT22;24692;45.642;13.806;2022-11-20T03:21:33;7.60;99.90
36444;DHT22;24692;45.642;13.806;2022-11-20T03:23:59;7.60;99.90
36444;DHT22;24692;45.642;13.806;2022-11-20T03:26:26;7.60;99.90
36444;DHT22;24692;45.642;13.806;2022-11-20T03:28:58;7.60;99.90
36444;DHT22;24692;45.642;13.806;2022-11-20T03:31:26;7.50;99.90
36444;DHT22;24692;45.642;13.806;2022-11-20T03:33:52;7.60;99.90
36444;DHT22;24692;45.642;13.806;2022-11-20T03:36:19;7.60;99.90
36444;DHT22;24692;45.642;13.806;2022-11-20T03:38:45;7.70;99.90
36444;DHT22;24692;45.642;13.806;2022-11-20T03:41:19;7.70;99.90
36444;DHT22;24692;45.642;13.806;2022-11-20T03:43:59;7.80;99.90
36444;DHT22;24692;45.642;13.806;2022-11-20T03:46:26;7.80;99.90
36444;DHT22;24692;45.642;13.806;2022-11-20T03:48:52;7.90;99.90
36444;DHT22;24692;45.642;13.806;2022-11-20T03:53:45;7.80;99.90
36444;DHT22;24692;45.642;13.806;2022-11-20T03:56:12;7.80;99.90
36444;DHT22;24692;45.642;13.806;2022-11-20T03:58:40;7.90;99.90
36444;DHT22;24692;45.642;13.806;2022-11-20T04:01:18;7.90;99.90
36444;DHT22;24692;45.642;13.806;2022-11-20T04:03:44;8.00;99.90
36444;DHT22;24692;45.642;13.806;2022-11-20T04:06:15;8.00;99.90
36444;DHT22;24692;45.642;13.806;2022-11-20T04:08:41;8.00;99.90
36444;DHT22;24692;45.642;13.806;2022-11-20T04:11:09;7.90;99.90
36444;DHT22;24692;45.642;13.806;2022-11-20T04:13:35;7.90;99.90
36444;DHT22;24692;45.642;13.806;2022-11-20T04:16:01;7.90;99.90
36444;DHT22;24692;45.642;13.806;2022-11-20T04:18:26;8.00;99.90
36444;DHT22;24692;45.642;13.806;2022-11-20T04:20:52;8.00;99.90
36444;DHT22;24692;45.642;13.806;2022-11-20T04:23:18;8.10;99.90
36444;DHT22;24692;45.642;13.806;2022-11-20T04:25:43;8.10;99.90
36444;DHT22;24692;45.642;13.806;2022-11-20T04:28:09;8.10;99.90
36444;DHT22;24692;45.642;13.806;2022-11-20T04:30:34;8.20;99.90
36444;DHT22;24692;45.642;13.806;2022-11-20T04:33:00;8.20;99.90
36444;DHT22;24692;45.642;13.806;2022-11-20T04:35:26;8.10;99.90
36444;DHT22;24692;45.642;13.806;2022-11-20T04:37:52;8.20;99.90
36444;DHT22;24692;45.642;13.806;2022-11-20T04:40:17;8.20;99.90
36444;DHT22;24692;45.642;13.806;2022-11-20T04:42:43;8.30;99.90
36444;DHT22;24692;45.642;13.806;2022-11-20T04:45:09;8.30;99.90
36444;DHT22;24692;45.642;13.806;2022-11-20T04:47:34;8.40;99.90
36444;DHT22;24692;45.642;13.806;2022-11-20T04:50:00;8.40;99.90
36444;DHT22;24692;45.642;13.806;2022-11-20T04:52:25;8.40;99.90
36444;DHT22;24692;45.642;13.806;2022-11-20T04:54:51;8.40;99.90
36444;DHT22;24692;45.642;13.806;2022-11-20T04:57:19;8.40;99.90
36444;DHT22;24692;45.642;13.806;2022-11-20T04:59:44;8.40;99.90
36444;DHT22;24692;45.642;13.806;2022-11-20T05:02:10;8.40;99.90
36444;DHT22;24692;45.642;13.806;2022-11-20T05:04:36;8.40;99.90
36444;DHT22;24692;45.642;13.806;2022-11-20T05:07:02;8.50;99.90
36444;DHT22;24692;45.642;13.806;2022-11-20T05:09:28;8.50;99.90
36444;DHT22;24692;45.642;13.806;2022-11-20T05:11:53;8.40;99.90
36444;DHT22;24692;45.642;13.806;2022-11-20T05:14:19;8.40;99.90
36444;DHT22;24692;45.642;13.806;2022-11-20T05:16:44;8.40;99.90
36444;DHT22;24692;45.642;13.806;2022-11-20T05:19:10;8.50;99.90
36444;DHT22;24692;45.642;13.806;2022-11-20T05:21:36;8.60;99.90
36444;DHT22;24692;45.642;13.806;2022-11-20T05:24:01;8.60;99.90
36444;DHT22;24692;45.642;13.806;2022-11-20T05:26:27;8.60;99.90
36444;DHT22;24692;45.642;13.806;2022-11-20T05:28:53;8.50;99.90
36444;DHT22;24692;45.642;13.806;2022-11-20T05:31:23;8.50;99.90
36444;DHT22;24692;45.642;13.806;2022-11-20T05:33:49;8.50;99.90
36444;DHT22;24692;45.642;13.806;2022-11-20T05:36:15;8.50;99.90
36444;DHT22;24692;45.642;13.806;2022-11-20T05:38:42;8.60;99.90
36444;DHT22;24692;45.642;13.806;2022-11-20T05:41:14;8.60;99.90
36444;DHT22;24692;45.642;13.806;2022-11-20T05:43:42;8.60;99.90
36444;DHT22;24692;45.642;13.806;2022-11-20T05:46:11;8.70;99.90
36444;DHT22;24692;45.642;13.806;2022-11-20T05:48:38;8.70;99.90
36444;DHT22;24692;45.642;13.806;2022-11-20T05:51:07;8.70;99.90
36444;DHT22;24692;45.642;13.806;2022-11-20T05:53:34;8.80;99.90
36444;DHT22;24692;45.642;13.806;2022-11-20T05:56:01;8.80;99.90
36444;DHT22;24692;45.642;13.806;2022-11-20T05:58:27;8.70;99.90
36444;DHT22;24692;45.642;13.806;2022-11-20T06:00:53;8.70;99.90
36444;DHT22;24692;45.642;13.806;2022-11-20T06:03:18;8.70;99.90
36444;DHT22;24692;45.642;13.806;2022-11-20T06:05:44;8.70;99.90
36444;DHT22;24692;45.642;13.806;2022-11-20T06:08:10;8.70;99.90
36444;DHT22;24692;45.642;13.806;2022-11-20T06:10:36;8.60;99.90
36444;DHT22;24692;45.642;13.806;2022-11-20T06:13:01;8.50;99.90
36444;DHT22;24692;45.642;13.806;2022-11-20T06:15:27;8.60;99.90
36444;DHT22;24692;45.642;13.806;2022-11-20T06:17:53;8.60;99.90
36444;DHT22;24692;45.642;13.806;2022-11-20T06:20:20;8.50;99.90
36444;DHT22;24692;45.642;13.806;2022-11-20T06:22:46;8.40;99.90
36444;DHT22;24692;45.642;13.806;2022-11-20T06:25:11;8.40;99.90
36444;DHT22;24692;45.642;13.806;2022-11-20T06:27:37;8.40;99.90
36444;DHT22;24692;45.642;13.806;2022-11-20T06:30:04;8.40;99.90
36444;DHT22;24692;45.642;13.806;2022-11-20T06:32:29;8.50;99.90
36444;DHT22;24692;45.642;13.806;2022-11-20T06:34:55;8.50;99.90
36444;DHT22;24692;45.642;13.806;2022-11-20T06:37:21;8.50;99.90
36444;DHT22;24692;45.642;13.806;2022-11-20T06:39:46;8.40;99.90
36444;DHT22;24692;45.642;13.806;2022-11-20T06:42:12;8.50;99.90
36444;DHT22;24692;45.642;13.806;2022-11-20T06:44:37;8.50;99.90
36444;DHT22;24692;45.642;13.806;2022-11-20T06:47:03;8.50;99.90
36444;DHT22;24692;45.642;13.806;2022-11-20T06:49:29;8.50;99.90
36444;DHT22;24692;45.642;13.806;2022-11-20T06:51:54;8.40;99.90
36444;DHT22;24692;45.642;13.806;2022-11-20T06:54:20;8.40;99.90
36444;DHT22;24692;45.642;13.806;2022-11-20T06:56:48;8.50;99.90
36444;DHT22;24692;45.642;13.806;2022-11-20T06:59:14;8.40;99.90
36444;DHT22;24692;45.642;13.806;2022-11-20T07:01:40;8.50;99.90
36444;DHT22;24692;45.642;13.806;2022-11-20T07:04:05;8.60;99.90
36444;DHT22;24692;45.642;13.806;2022-11-20T07:06:31;8.60;99.90
36444;DHT22;24692;45.642;13.806;2022-11-20T07:08:57;8.60;99.90
36444;DHT22;24692;45.642;13.806;2022-11-20T07:11:23;8.60;99.90
36444;DHT22;24692;45.642;13.806;2022-11-20T07:13:49;8.70;99.90
36444;DHT22;24692;45.642;13.806;2022-11-20T07:16:15;8.70;99.90
36444;DHT22;24692;45.642;13.806;2022-11-20T07:18:40;8.70;99.90
36444;DHT22;24692;45.642;13.806;2022-11-20T07:21:08;8.80;99.90
36444;DHT22;24692;45.642;13.806;2022-11-20T07:23:35;8.70;99.90
36444;DHT22;24692;45.642;13.806;2022-11-20T07:26:09;8.80;99.90
36444;DHT22;24692;45.642;13.806;2022-11-20T07:28:35;8.80;99.90
36444;DHT22;24692;45.642;13.806;2022-11-20T07:31:01;8.90;99.90
36444;DHT22;24692;45.642;13.806;2022-11-20T07:33:27;8.90;99.90
36444;DHT22;24692;45.642;13.806;2022-11-20T07:35:53;9.00;99.90
36444;DHT22;24692;45.642;13.806;2022-11-20T07:38:18;9.00;99.90
36444;DHT22;24692;45.642;13.806;2022-11-20T07:40:44;9.00;99.90
36444;DHT22;24692;45.642;13.806;2022-11-20T07:43:10;9.00;99.90
36444;DHT22;24692;45.642;13.806;2022-11-20T07:45:35;8.90;99.90
36444;DHT22;24692;45.642;13.806;2022-11-20T07:48:01;8.90;99.90
36444;DHT22;24692;45.642;13.806;2022-11-20T07:50:27;8.90;99.90
36444;DHT22;24692;45.642;13.806;2022-11-20T07:53:00;8.90;99.90
36444;DHT22;24692;45.642;13.806;2022-11-20T07:55:26;8.90;99.90
36444;DHT22;24692;45.642;13.806;2022-11-20T07:57:55;8.90;99.90
36444;DHT22;24692;45.642;13.806;2022-11-20T08:00:23;8.90;99.90
36444;DHT22;24692;45.642;13.806;2022-11-20T08:02:48;8.90;99.90
36444;DHT22;24692;45.642;13.806;2022-11-20T08:05:14;8.90;99.90
36444;DHT22;24692;45.642;13.806;2022-11-20T08:07:42;9.00;99.90
36444;DHT22;24692;45.642;13.806;2022-11-20T08:10:10;9.00;99.90
36444;DHT22;24692;45.642;13.806;2022-11-20T08:12:42;9.00;99.90
36444;DHT22;24692;45.642;13.806;2022-11-20T08:15:27;9.00;99.90
36444;DHT22;24692;45.642;13.806;2022-11-20T08:20:27;9.00;99.90
36444;DHT22;24692;45.642;13.806;2022-11-20T08:23:01;9.10;99.90
36444;DHT22;24692;45.642;13.806;2022-11-20T08:25:28;9.10;99.90
36444;DHT22;24692;45.642;13.806;2022-11-20T08:27:54;9.00;99.90
36444;DHT22;24692;45.642;13.806;2022-11-20T08:30:19;8.80;99.90
36444;DHT22;24692;45.642;13.806;2022-11-20T08:32:45;8.80;99.90
36444;DHT22;24692;45.642;13.806;2022-11-20T08:35:11;8.80;99.90
36444;DHT22;24692;45.642;13.806;2022-11-20T08:37:36;8.90;99.90
36444;DHT22;24692;45.642;13.806;2022-11-20T08:40:09;9.00;99.90
36444;DHT22;24692;45.642;13.806;2022-11-20T08:42:36;9.10;99.90
36444;DHT22;24692;45.642;13.806;2022-11-20T08:45:01;9.10;99.90
36444;DHT22;24692;45.642;13.806;2022-11-20T08:47:27;9.10;99.90
36444;DHT22;24692;45.642;13.806;2022-11-20T08:49:52;9.00;99.90
36444;DHT22;24692;45.642;13.806;2022-11-20T08:52:18;9.10;99.90
36444;DHT22;24692;45.642;13.806;2022-11-20T08:54:44;9.20;99.90
36444;DHT22;24692;45.642;13.806;2022-11-20T08:57:09;9.20;99.90
36444;DHT22;24692;45.642;13.806;2022-11-20T08:59:35;9.30;99.90
36444;DHT22;24692;45.642;13.806;2022-11-20T09:02:00;9.30;99.90
36444;DHT22;24692;45.642;13.806;2022-11-20T09:04:26;9.40;99.90
36444;DHT22;24692;45.642;13.806;2022-11-20T09:06:52;9.50;99.90
36444;DHT22;24692;45.642;13.806;2022-11-20T09:09:18;9.50;99.90
36444;DHT22;24692;45.642;13.806;2022-11-20T09:11:44;9.60;99.90
36444;DHT22;24692;45.642;13.806;2022-11-20T09:14:10;9.60;99.90
36444;DHT22;24692;45.642;13.806;2022-11-20T09:16:35;9.60;99.90
36444;DHT22;24692;45.642;13.806;2022-11-20T09:19:01;9.50;99.90
36444;DHT22;24692;45.642;13.806;2022-11-20T09:21:27;9.50;99.90
36444;DHT22;24692;45.642;13.806;2022-11-20T09:23:52;9.50;99.90
36444;DHT22;24692;45.642;13.806;2022-11-20T09:26:18;9.50;99.90
36444;DHT22;24692;45.642;13.806;2022-11-20T09:28:44;9.50;99.90
36444;DHT22;24692;45.642;13.806;2022-11-20T09:31:23;9.60;99.90
36444;DHT22;24692;45.642;13.806;2022-11-20T09:33:49;9.60;99.90
36444;DHT22;24692;45.642;13.806;2022-11-20T09:36:15;9.60;99.90
36444;DHT22;24692;45.642;13.806;2022-11-20T09:38:42;9.60;99.90
36444;DHT22;24692;45.642;13.806;2022-11-20T09:41:36;9.70;99.90
36444;DHT22;24692;45.642;13.806;2022-11-20T09:44:38;9.80;99.90
36444;DHT22;24692;45.642;13.806;2022-11-20T09:47:08;9.80;99.90
36444;DHT22;24692;45.642;13.806;2022-11-20T09:52:37;10.20;99.90
36444;DHT22;24692;45.642;13.806;2022-11-20T09:55:11;10.20;99.90
36444;DHT22;24692;45.642;13.806;2022-11-20T09:57:42;10.20;99.90
36444;DHT22;24692;45.642;13.806;2022-11-20T10:00:11;10.30;99.90
36444;DHT22;24692;45.642;13.806;2022-11-20T10:16:26;10.60;99.90
36444;DHT22;24692;45.642;13.806;2022-11-20T10:26:59;10.90;99.90
36444;DHT22;24692;45.642;13.806;2022-11-20T10:29:33;10.90;99.90
36444;DHT22;24692;45.642;13.806;2022-11-20T10:32:20;10.70;99.90
36444;DHT22;24692;45.642;13.806;2022-11-20T10:37:26;10.70;99.90
36444;DHT22;24692;45.642;13.806;2022-11-20T10:43:21;10.80;99.90
36444;DHT22;24692;45.642;13.806;2022-11-20T10:45:56;10.90;99.90
36444;DHT22;24692;45.642;13.806;2022-11-20T10:48:25;10.80;99.90
36444;DHT22;24692;45.642;13.806;2022-11-20T10:56:27;11.20;99.90
36444;DHT22;24692;45.642;13.806;2022-11-20T10:59:12;11.20;99.90
36444;DHT22;24692;45.642;13.806;2022-11-20T11:01:46;11.40;99.90
36444;DHT22;24692;45.642;13.806;2022-11-20T11:07:33;11.50;99.90
36444;DHT22;24692;45.642;13.806;2022-11-20T11:10:00;11.50;99.90
36444;DHT22;24692;45.642;13.806;2022-11-20T11:12:28;11.40;99.90
36444;DHT22;24692;45.642;13.806;2022-11-20T11:14:56;11.20;99.90
36444;DHT22;24692;45.642;13.806;2022-11-20T11:17:32;11.20;99.90
36444;DHT22;24692;45.642;13.806;2022-11-20T11:22:47;11.10;99.90
36444;DHT22;24692;45.642;13.806;2022-11-20T11:27:47;11.20;99.90
36444;DHT22;24692;45.642;13.806;2022-11-20T11:30:18;11.10;99.90
36444;DHT22;24692;45.642;13.806;2022-11-20T11:32:44;11.10;99.90
36444;DHT22;24692;45.642;13.806;2022-11-20T11:35:27;11.10;99.90
36444;DHT22;24692;45.642;13.806;2022-11-20T11:38:14;11.20;99.90
36444;DHT22;24692;45.642;13.806;2022-11-20T11:40:41;11.10;99.90
36444;DHT22;24692;45.642;13.806;2022-11-20T11:43:17;11.20;99.90
36444;DHT22;24692;45.642;13.806;2022-11-20T11:46:08;11.30;99.90
36444;DHT22;24692;45.642;13.806;2022-11-20T11:48:40;11.30;99.90
36444;DHT22;24692;45.642;13.806;2022-11-20T11:51:08;11.30;99.90
36444;DHT22;24692;45.642;13.806;2022-11-20T11:53:39;11.40;99.90
36444;DHT22;24692;45.642;13.806;2022-11-20T11:56:09;11.40;99.90
36444;DHT22;24692;45.642;13.806;2022-11-20T11:58:46;11.50;99.90
36444;DHT22;24692;45.642;13.806;2022-11-20T12:07:12;11.90;99.90
36444;DHT22;24692;45.642;13.806;2022-11-20T12:09:43;12.10;99.90
36444;DHT22;24692;45.642;13.806;2022-11-20T12:12:19;12.40;99.90
36444;DHT22;24692;45.642;13.806;2022-11-20T12:14:47;12.50;99.90
36444;DHT22;24692;45.642;13.806;2022-11-20T12:17:15;12.70;99.90
36444;DHT22;24692;45.642;13.806;2022-11-20T12:19:41;12.90;99.90
36444;DHT22;24692;45.642;13.806;2022-11-20T12:27:36;12.90;99.90
36444;DHT22;24692;45.642;13.806;2022-11-20T12:36:06;12.60;99.90
36444;DHT22;24692;45.642;13.806;2022-11-20T12:38:43;12.40;99.90
36444;DHT22;24692;45.642;13.806;2022-11-20T12:55:41;12.50;99.90
36444;DHT22;24692;45.642;13.806;2022-11-20T12:58:25;12.60;99.90
36444;DHT22;24692;45.642;13.806;2022-11-20T13:01:37;12.40;99.90
36444;DHT22;24692;45.642;13.806;2022-11-20T13:07:05;12.60;99.90
36444;DHT22;24692;45.642;13.806;2022-11-20T13:09:32;12.40;99.90
36444;DHT22;24692;45.642;13.806;2022-11-20T13:12:36;12.40;99.90
36444;DHT22;24692;45.642;13.806;2022-11-20T13:15:36;12.50;99.90
36444;DHT22;24692;45.642;13.806;2022-11-20T13:18:09;12.80;99.90
36444;DHT22;24692;45.642;13.806;2022-11-20T13:20:41;12.80;99.90
36444;DHT22;24692;45.642;13.806;2022-11-20T13:23:07;12.50;99.90
36444;DHT22;24692;45.642;13.806;2022-11-20T13:25:35;12.40;99.90
36444;DHT22;24692;45.642;13.806;2022-11-20T13:28:28;12.50;99.90
36444;DHT22;24692;45.642;13.806;2022-11-20T13:30:55;12.50;99.90
36444;DHT22;24692;45.642;13.806;2022-11-20T13:33:23;12.50;99.90
36444;DHT22;24692;45.642;13.806;2022-11-20T13:36:21;12.50;99.90
36444;DHT22;24692;45.642;13.806;2022-11-20T13:38:52;12.50;99.90
36444;DHT22;24692;45.642;13.806;2022-11-20T13:41:28;12.80;99.90
36444;DHT22;24692;45.642;13.806;2022-11-20T13:44:04;12.90;99.90
36444;DHT22;24692;45.642;13.806;2022-11-20T13:46:42;13.40;99.90
36444;DHT22;24692;45.642;13.806;2022-11-20T13:49:18;14.30;99.90
36444;DHT22;24692;45.642;13.806;2022-11-20T13:51:47;14.80;99.90
36444;DHT22;24692;45.642;13.806;2022-11-20T14:00:19;17.00;99.90
36444;DHT22;24692;45.642;13.806;2022-11-20T14:05:34;17.60;99.90
36444;DHT22;24692;45.642;13.806;2022-11-20T14:08:03;17.80;99.90
36444;DHT22;24692;45.642;13.806;2022-11-20T14:10:31;18.10;99.90
36444;DHT22;24692;45.642;13.806;2022-11-20T14:12:57;17.60;99.90
36444;DHT22;24692;45.642;13.806;2022-11-20T14:15:28;17.70;99.90
36444;DHT22;24692;45.642;13.806;2022-11-20T14:17:55;17.60;99.90
36444;DHT22;24692;45.642;13.806;2022-11-20T14:20:27;17.00;99.90
36444;DHT22;24692;45.642;13.806;2022-11-20T14:22:55;17.10;99.90
36444;DHT22;24692;45.642;13.806;2022-11-20T14:25:25;17.30;99.90
36444;DHT22;24692;45.642;13.806;2022-11-20T14:27:58;17.30;99.90
36444;DHT22;24692;45.642;13.806;2022-11-20T14:30:50;16.50;99.90
36444;DHT22;24692;45.642;13.806;2022-11-20T14:33:16;16.20;99.90
36444;DHT22;24692;45.642;13.806;2022-11-20T14:35:53;16.30;99.90
36444;DHT22;24692;45.642;13.806;2022-11-20T14:38:26;16.30;99.90
36444;DHT22;24692;45.642;13.806;2022-11-20T14:40:52;15.90;99.90
36444;DHT22;24692;45.642;13.806;2022-11-20T14:43:26;15.30;99.90
36444;DHT22;24692;45.642;13.806;2022-11-20T14:46:11;15.10;99.90
36444;DHT22;24692;45.642;13.806;2022-11-20T14:48:55;15.00;99.90
36444;DHT22;24692;45.642;13.806;2022-11-20T14:54:20;14.90;99.90
36444;DHT22;24692;45.642;13.806;2022-11-20T14:57:03;15.10;99.90
36444;DHT22;24692;45.642;13.806;2022-11-20T14:59:31;14.80;99.90
36444;DHT22;24692;45.642;13.806;2022-11-20T15:02:00;14.10;99.90
36444;DHT22;24692;45.642;13.806;2022-11-20T15:04:26;13.50;99.90
36444;DHT22;24692;45.642;13.806;2022-11-20T15:06:54;13.40;99.90
36444;DHT22;24692;45.642;13.806;2022-11-20T15:09:20;13.60;99.90
36444;DHT22;24692;45.642;13.806;2022-11-20T15:12:15;13.60;99.90
36444;DHT22;24692;45.642;13.806;2022-11-20T15:14:42;13.00;99.90
36444;DHT22;24692;45.642;13.806;2022-11-20T15:17:10;12.80;99.90
36444;DHT22;24692;45.642;13.806;2022-11-20T15:19:36;12.70;99.90
36444;DHT22;24692;45.642;13.806;2022-11-20T15:22:02;12.40;99.90
36444;DHT22;24692;45.642;13.806;2022-11-20T15:24:28;12.00;99.90
36444;DHT22;24692;45.642;13.806;2022-11-20T15:26:54;11.70;99.90
36444;DHT22;24692;45.642;13.806;2022-11-20T15:29:21;11.40;99.90
36444;DHT22;24692;45.642;13.806;2022-11-20T15:31:48;11.00;99.90
36444;DHT22;24692;45.642;13.806;2022-11-20T15:34:16;10.80;99.90
36444;DHT22;24692;45.642;13.806;2022-11-20T15:36:42;10.50;99.90
36444;DHT22;24692;45.642;13.806;2022-11-20T15:39:08;10.20;99.90
36444;DHT22;24692;45.642;13.806;2022-11-20T15:41:35;10.10;99.90
36444;DHT22;24692;45.642;13.806;2022-11-20T15:44:02;10.10;99.90
36444;DHT22;24692;45.642;13.806;2022-11-20T15:46:30;10.00;99.90
36444;DHT22;24692;45.642;13.806;2022-11-20T15:49:00;10.00;99.90
36444;DHT22;24692;45.642;13.806;2022-11-20T15:51:33;9.90;99.90
36444;DHT22;24692;45.642;13.806;2022-11-20T15:53:59;9.80;99.90
36444;DHT22;24692;45.642;13.806;2022-11-20T15:56:26;9.70;99.90
36444;DHT22;24692;45.642;13.806;2022-11-20T15:58:51;9.60;99.90
36444;DHT22;24692;45.642;13.806;2022-11-20T16:01:21;9.40;99.90
36444;DHT22;24692;45.642;13.806;2022-11-20T16:03:47;9.40;99.90
36444;DHT22;24692;45.642;13.806;2022-11-20T16:06:13;9.40;99.90
36444;DHT22;24692;45.642;13.806;2022-11-20T16:08:41;9.30;99.90
36444;DHT22;24692;45.642;13.806;2022-11-20T16:11:09;9.30;99.90
36444;DHT22;24692;45.642;13.806;2022-11-20T16:13:35;9.20;99.90
36444;DHT22;24692;45.642;13.806;2022-11-20T16:18:53;9.10;99.90
36444;DHT22;24692;45.642;13.806;2022-11-20T16:21:19;9.00;99.90
36444;DHT22;24692;45.642;13.806;2022-11-20T16:23:44;8.90;99.90
36444;DHT22;24692;45.642;13.806;2022-11-20T16:26:15;8.90;99.90
36444;DHT22;24692;45.642;13.806;2022-11-20T16:28:42;8.90;99.90
36444;DHT22;24692;45.642;13.806;2022-11-20T16:31:13;8.90;99.90
36444;DHT22;24692;45.642;13.806;2022-11-20T16:33:40;8.90;99.90
36444;DHT22;24692;45.642;13.806;2022-11-20T16:36:10;8.90;99.90
36444;DHT22;24692;45.642;13.806;2022-11-20T16:38:36;8.90;99.90
36444;DHT22;24692;45.642;13.806;2022-11-20T16:41:03;8.80;99.90
36444;DHT22;24692;45.642;13.806;2022-11-20T16:43:29;8.80;99.90
36444;DHT22;24692;45.642;13.806;2022-11-20T16:45:55;8.80;99.90
36444;DHT22;24692;45.642;13.806;2022-11-20T16:48:20;8.80;99.90
36444;DHT22;24692;45.642;13.806;2022-11-20T16:50:52;8.90;99.90
36444;DHT22;24692;45.642;13.806;2022-11-20T16:53:19;8.80;99.90
36444;DHT22;24692;45.642;13.806;2022-11-20T16:55:45;8.70;99.90
36444;DHT22;24692;45.642;13.806;2022-11-20T16:58:11;8.70;99.90
36444;DHT22;24692;45.642;13.806;2022-11-20T17:00:38;8.60;99.90
36444;DHT22;24692;45.642;13.806;2022-11-20T17:03:07;8.50;99.90
36444;DHT22;24692;45.642;13.806;2022-11-20T17:05:38;8.60;99.90
36444;DHT22;24692;45.642;13.806;2022-11-20T17:08:03;8.60;99.90
36444;DHT22;24692;45.642;13.806;2022-11-20T17:10:29;8.60;99.90
36444;DHT22;24692;45.642;13.806;2022-11-20T17:12:57;8.60;99.90
36444;DHT22;24692;45.642;13.806;2022-11-20T17:15:23;8.50;99.90
36444;DHT22;24692;45.642;13.806;2022-11-20T17:17:48;8.40;99.90
36444;DHT22;24692;45.642;13.806;2022-11-20T17:20:14;8.40;99.90
36444;DHT22;24692;45.642;13.806;2022-11-20T17:22:39;8.40;99.90
36444;DHT22;24692;45.642;13.806;2022-11-20T17:25:05;8.40;99.90
36444;DHT22;24692;45.642;13.806;2022-11-20T17:27:31;8.40;99.90